sensor_id;sensor_type;location;lat;lon;timestamp;pressure;altitude;pressure_sealevel;temperature;humidity
59939;BME280;45801;51.810;19.444;2022-12-05T00:03:48;99750.09;;;3.59;70.35
59939;BME280;45801;51.810;19.444;2022-12-05T00:06:16;99743.20;;;3.57;70.30
59939;BME280;45801;51.810;19.444;2022-12-05T00:08:43;99742.63;;;3.54;70.45
59939;BME280;45801;51.810;19.444;2022-12-05T00:11:12;99745.05;;;3.54;70.44
59939;BME280;45801;51.810;19.444;2022-12-05T00:13:40;99744.89;;;3.55;70.33
59939;BME280;45801;51.810;19.444;2022-12-05T00:16:10;99742.02;;;3.55;70.42
59939;BME280;45801;51.810;19.444;2022-12-05T00:18:37;99743.30;;;3.57;70.48
59939;BME280;45801;51.810;19.444;2022-12-05T00:21:06;99740.13;;;3.58;70.35
59939;BME280;45801;51.810;19.444;2022-12-05T00:23:32;99737.90;;;3.60;70.18
59939;BME280;45801;51.810;19.444;2022-12-05T00:26:03;99740.59;;;3.59;70.30
59939;BME280;45801;51.810;19.444;2022-12-05T00:28:32;99738.89;;;3.60;70.30
59939;BME280;45801;51.810;19.444;2022-12-05T00:31:08;99733.11;;;3.61;70.21
59939;BME280;45801;51.810;19.444;2022-12-05T00:33:37;99737.33;;;3.60;70.24
59939;BME280;45801;51.810;19.444;2022-12-05T00:36:08;99744.48;;;3.61;70.16
59939;BME280;45801;51.810;19.444;2022-12-05T00:38:37;99743.64;;;3.59;69.95
59939;BME280;45801;51.810;19.444;2022-12-05T00:41:05;99741.80;;;3.55;70.06
59939;BME280;45801;51.810;19.444;2022-12-05T00:43:32;99745.21;;;3.54;70.04
59939;BME280;45801;51.810;19.444;2022-12-05T00:46:01;99742.10;;;3.54;70.26
59939;BME280;45801;51.810;19.444;2022-12-05T00:48:28;99740.12;;;3.53;70.34
59939;BME280;45801;51.810;19.444;2022-12-05T00:51:03;99739.91;;;3.53;70.36
59939;BME280;45801;51.810;19.444;2022-12-05T00:53:30;99746.38;;;3.53;70.25
59939;BME280;45801;51.810;19.444;2022-12-05T00:56:05;99745.42;;;3.52;70.26
59939;BME280;45801;51.810;19.444;2022-12-05T00:58:33;99732.38;;;3.49;70.17
59939;BME280;45801;51.810;19.444;2022-12-05T01:03:38;99718.13;;;3.51;70.52
59939;BME280;45801;51.810;19.444;2022-12-05T01:06:05;99713.75;;;3.50;70.40
59939;BME280;45801;51.810;19.444;2022-12-05T01:08:33;99713.13;;;3.47;70.16
59939;BME280;45801;51.810;19.444;2022-12-05T01:11:01;99714.17;;;3.43;70.38
59939;BME280;45801;51.810;19.444;2022-12-05T01:13:27;99718.55;;;3.41;70.38
59939;BME280;45801;51.810;19.444;2022-12-05T01:15:54;99718.59;;;3.37;70.34
59939;BME280;45801;51.810;19.444;2022-12-05T01:18:22;99719.62;;;3.32;70.33
59939;BME280;45801;51.810;19.444;2022-12-05T01:20:49;99717.77;;;3.31;70.38
59939;BME280;45801;51.810;19.444;2022-12-05T01:23:17;99723.04;;;3.28;70.21
59939;BME280;45801;51.810;19.444;2022-12-05T01:25:46;99724.53;;;3.23;70.34
59939;BME280;45801;51.810;19.444;2022-12-05T01:28:14;99718.38;;;3.19;70.46
59939;BME280;45801;51.810;19.444;2022-12-05T01:30:44;99716.27;;;3.19;70.59
59939;BME280;45801;51.810;19.444;2022-12-05T01:33:12;99719.23;;;3.17;70.83
59939;BME280;45801;51.810;19.444;2022-12-05T01:35:39;99719.17;;;3.18;70.58
59939;BME280;45801;51.810;19.444;2022-12-05T01:38:07;99720.36;;;3.27;70.79
59939;BME280;45801;51.810;19.444;2022-12-05T01:40:34;99719.45;;;3.37;70.50
59939;BME280;45801;51.810;19.444;2022-12-05T01:43:09;99718.23;;;3.42;70.27
59939;BME280;45801;51.810;19.444;2022-12-05T01:45:41;99723.19;;;3.43;70.32
59939;BME280;45801;51.810;19.444;2022-12-05T01:48:13;99720.88;;;3.42;70.41
59939;BME280;45801;51.810;19.444;2022-12-05T01:50:42;99720.67;;;3.44;70.22
59939;BME280;45801;51.810;19.444;2022-12-05T01:53:09;99715.70;;;3.45;69.92
59939;BME280;45801;51.810;19.444;2022-12-05T01:55:36;99712.46;;;3.45;70.00
59939;BME280;45801;51.810;19.444;2022-12-05T01:58:05;99709.73;;;3.44;69.72
59939;BME280;45801;51.810;19.444;2022-12-05T02:00:33;99709.42;;;3.40;69.80
59939;BME280;45801;51.810;19.444;2022-12-05T02:03:04;99707.74;;;3.38;69.75
59939;BME280;45801;51.810;19.444;2022-12-05T02:05:33;99707.86;;;3.35;69.52
59939;BME280;45801;51.810;19.444;2022-12-05T02:08:04;99707.26;;;3.30;69.73
59939;BME280;45801;51.810;19.444;2022-12-05T02:10:35;99702.39;;;3.23;70.04
59939;BME280;45801;51.810;19.444;2022-12-05T02:13:13;99700.14;;;3.19;70.21
59939;BME280;45801;51.810;19.444;2022-12-05T02:15:53;99700.02;;;3.17;70.17
59939;BME280;45801;51.810;19.444;2022-12-05T02:21:18;99704.52;;;3.19;70.36
59939;BME280;45801;51.810;19.444;2022-12-05T02:24:06;99708.94;;;3.25;70.32
59939;BME280;45801;51.810;19.444;2022-12-05T02:29:47;99712.38;;;3.31;70.25
59939;BME280;45801;51.810;19.444;2022-12-05T02:38:58;99699.05;;;3.20;70.09
59939;BME280;45801;51.810;19.444;2022-12-05T02:41:25;99690.75;;;3.20;70.21
59939;BME280;45801;51.810;19.444;2022-12-05T02:43:59;99678.94;;;3.22;70.09
59939;BME280;45801;51.810;19.444;2022-12-05T02:46:29;99672.05;;;3.20;70.04
59939;BME280;45801;51.810;19.444;2022-12-05T02:49:02;99670.54;;;3.16;70.27
59939;BME280;45801;51.810;19.444;2022-12-05T02:51:34;99662.81;;;3.15;70.20
59939;BME280;45801;51.810;19.444;2022-12-05T02:54:05;99665.67;;;3.14;70.32
59939;BME280;45801;51.810;19.444;2022-12-05T02:56:35;99664.86;;;3.14;70.26
59939;BME280;45801;51.810;19.444;2022-12-05T02:59:02;99664.27;;;3.18;70.43
59939;BME280;45801;51.810;19.444;2022-12-05T03:01:30;99667.09;;;3.21;70.41
59939;BME280;45801;51.810;19.444;2022-12-05T03:03:59;99666.58;;;3.21;70.40
59939;BME280;45801;51.810;19.444;2022-12-05T03:06:29;99662.58;;;3.25;70.52
59939;BME280;45801;51.810;19.444;2022-12-05T03:09:08;99658.98;;;3.26;70.54
59939;BME280;45801;51.810;19.444;2022-12-05T03:11:40;99657.89;;;3.25;70.64
59939;BME280;45801;51.810;19.444;2022-12-05T03:14:12;99653.34;;;3.24;70.63
59939;BME280;45801;51.810;19.444;2022-12-05T03:16:49;99650.45;;;3.23;70.51
59939;BME280;45801;51.810;19.444;2022-12-05T03:19:20;99648.58;;;3.21;70.24
59939;BME280;45801;51.810;19.444;2022-12-05T03:22:01;99652.73;;;3.18;70.29
59939;BME280;45801;51.810;19.444;2022-12-05T03:24:29;99651.55;;;3.17;70.02
59939;BME280;45801;51.810;19.444;2022-12-05T03:27:06;99654.05;;;3.11;70.22
59939;BME280;45801;51.810;19.444;2022-12-05T03:29:43;99656.15;;;3.07;70.53
59939;BME280;45801;51.810;19.444;2022-12-05T03:35:13;99656.59;;;3.13;70.18
59939;BME280;45801;51.810;19.444;2022-12-05T03:37:57;99651.60;;;3.15;70.22
59939;BME280;45801;51.810;19.444;2022-12-05T03:43:19;99656.08;;;3.15;70.01
59939;BME280;45801;51.810;19.444;2022-12-05T03:45:52;99662.95;;;3.14;70.21
59939;BME280;45801;51.810;19.444;2022-12-05T03:51:15;99666.84;;;3.17;70.42
59939;BME280;45801;51.810;19.444;2022-12-05T03:53:53;99668.03;;;3.19;70.57
59939;BME280;45801;51.810;19.444;2022-12-05T03:56:31;99669.42;;;3.15;70.66
59939;BME280;45801;51.810;19.444;2022-12-05T03:59:34;99670.70;;;3.18;70.72
59939;BME280;45801;51.810;19.444;2022-12-05T04:02:05;99678.81;;;3.22;70.75
59939;BME280;45801;51.810;19.444;2022-12-05T04:04:41;99683.17;;;3.25;70.71
59939;BME280;45801;51.810;19.444;2022-12-05T04:07:14;99689.95;;;3.25;70.65
59939;BME280;45801;51.810;19.444;2022-12-05T04:09:52;99688.11;;;3.22;70.54
59939;BME280;45801;51.810;19.444;2022-12-05T04:12:22;99695.26;;;3.25;70.40
59939;BME280;45801;51.810;19.444;2022-12-05T04:14:56;99697.39;;;3.25;70.30
59939;BME280;45801;51.810;19.444;2022-12-05T04:17:38;99691.52;;;3.25;70.26
59939;BME280;45801;51.810;19.444;2022-12-05T04:20:15;99687.61;;;3.22;70.09
59939;BME280;45801;51.810;19.444;2022-12-05T04:23:02;99687.59;;;3.20;70.22
59939;BME280;45801;51.810;19.444;2022-12-05T04:25:36;99689.88;;;3.20;70.18
59939;BME280;45801;51.810;19.444;2022-12-05T04:28:19;99691.33;;;3.21;70.00
59939;BME280;45801;51.810;19.444;2022-12-05T04:33:44;99684.94;;;3.19;70.27
59939;BME280;45801;51.810;19.444;2022-12-05T04:36:18;99685.56;;;3.20;70.44
59939;BME280;45801;51.810;19.444;2022-12-05T04:38:54;99679.63;;;3.24;70.66
59939;BME280;45801;51.810;19.444;2022-12-05T04:41:26;99677.64;;;3.25;70.47
59939;BME280;45801;51.810;19.444;2022-12-05T04:43:57;99679.84;;;3.25;70.61
59939;BME280;45801;51.810;19.444;2022-12-05T04:46:24;99679.13;;;3.27;70.77
59939;BME280;45801;51.810;19.444;2022-12-05T04:48:55;99682.48;;;3.30;70.57
59939;BME280;45801;51.810;19.444;2022-12-05T04:51:26;99686.42;;;3.33;70.58
59939;BME280;45801;51.810;19.444;2022-12-05T04:54:02;99686.46;;;3.36;70.37
59939;BME280;45801;51.810;19.444;2022-12-05T04:56:33;99684.27;;;3.34;70.16
59939;BME280;45801;51.810;19.444;2022-12-05T04:59:01;99685.91;;;3.31;70.23
59939;BME280;45801;51.810;19.444;2022-12-05T05:01:33;99684.92;;;3.27;70.21
59939;BME280;45801;51.810;19.444;2022-12-05T05:05:01;99685.95;;;3.25;70.31
59939;BME280;45801;51.810;19.444;2022-12-05T05:07:19;99681.25;;;3.22;70.46
59939;BME280;45801;51.810;19.444;2022-12-05T05:09:46;99683.27;;;3.22;70.45
59939;BME280;45801;51.810;19.444;2022-12-05T05:12:12;99685.58;;;3.25;70.37
59939;BME280;45801;51.810;19.444;2022-12-05T05:14:42;99679.13;;;3.26;70.45
59939;BME280;45801;51.810;19.444;2022-12-05T05:17:08;99675.63;;;3.26;70.35
59939;BME280;45801;51.810;19.444;2022-12-05T05:19:35;99677.41;;;3.27;70.59
59939;BME280;45801;51.810;19.444;2022-12-05T05:22:01;99680.80;;;3.30;70.46
59939;BME280;45801;51.810;19.444;2022-12-05T05:24:27;99679.43;;;3.30;70.36
59939;BME280;45801;51.810;19.444;2022-12-05T05:26:55;99670.18;;;3.29;70.39
59939;BME280;45801;51.810;19.444;2022-12-05T05:29:21;99673.22;;;3.30;70.45
59939;BME280;45801;51.810;19.444;2022-12-05T05:31:48;99674.13;;;3.33;70.50
59939;BME280;45801;51.810;19.444;2022-12-05T05:34:14;99670.13;;;3.35;70.69
59939;BME280;45801;51.810;19.444;2022-12-05T05:36:41;99666.63;;;3.37;70.63
59939;BME280;45801;51.810;19.444;2022-12-05T05:39:11;99659.36;;;3.37;70.48
59939;BME280;45801;51.810;19.444;2022-12-05T05:41:38;99658.06;;;3.36;70.42
59939;BME280;45801;51.810;19.444;2022-12-05T05:44:04;99655.43;;;3.33;70.35
59939;BME280;45801;51.810;19.444;2022-12-05T05:46:33;99657.30;;;3.30;70.40
59939;BME280;45801;51.810;19.444;2022-12-05T05:49:00;99657.89;;;3.29;70.27
59939;BME280;45801;51.810;19.444;2022-12-05T05:51:26;99660.20;;;3.28;70.21
59939;BME280;45801;51.810;19.444;2022-12-05T05:53:55;99664.05;;;3.26;70.33
59939;BME280;45801;51.810;19.444;2022-12-05T05:56:22;99661.53;;;3.25;70.36
59939;BME280;45801;51.810;19.444;2022-12-05T05:59:00;99659.16;;;3.23;70.22
59939;BME280;45801;51.810;19.444;2022-12-05T06:01:27;99657.27;;;3.21;70.23
59939;BME280;45801;51.810;19.444;2022-12-05T06:03:54;99662.52;;;3.20;70.33
59939;BME280;45801;51.810;19.444;2022-12-05T06:06:21;99664.79;;;3.20;70.52
59939;BME280;45801;51.810;19.444;2022-12-05T06:08:47;99664.77;;;3.20;70.52
59939;BME280;45801;51.810;19.444;2022-12-05T06:11:17;99662.86;;;3.22;70.73
59939;BME280;45801;51.810;19.444;2022-12-05T06:13:44;99660.04;;;3.24;70.73
59939;BME280;45801;51.810;19.444;2022-12-05T06:16:12;99659.58;;;3.27;71.11
59939;BME280;45801;51.810;19.444;2022-12-05T06:18:39;99651.96;;;3.27;71.09
59939;BME280;45801;51.810;19.444;2022-12-05T06:21:06;99649.11;;;3.30;70.86
59939;BME280;45801;51.810;19.444;2022-12-05T06:23:34;99646.88;;;3.30;70.78
59939;BME280;45801;51.810;19.444;2022-12-05T06:26:02;99644.85;;;3.31;70.74
59939;BME280;45801;51.810;19.444;2022-12-05T06:28:29;99639.51;;;3.31;70.83
59939;BME280;45801;51.810;19.444;2022-12-05T06:30:56;99638.97;;;3.29;70.60
59939;BME280;45801;51.810;19.444;2022-12-05T06:33:22;99639.04;;;3.25;70.62
59939;BME280;45801;51.810;19.444;2022-12-05T06:36:01;99642.11;;;3.25;70.81
59939;BME280;45801;51.810;19.444;2022-12-05T06:38:27;99642.00;;;3.25;70.49
59939;BME280;45801;51.810;19.444;2022-12-05T06:40:54;99650.33;;;3.28;70.46
59939;BME280;45801;51.810;19.444;2022-12-05T06:43:21;99658.27;;;3.27;70.47
59939;BME280;45801;51.810;19.444;2022-12-05T06:45:47;99658.15;;;3.24;70.75
59939;BME280;45801;51.810;19.444;2022-12-05T06:48:13;99653.44;;;3.23;70.67
59939;BME280;45801;51.810;19.444;2022-12-05T06:50:47;99647.63;;;3.22;70.81
59939;BME280;45801;51.810;19.444;2022-12-05T06:53:14;99644.40;;;3.23;70.72
59939;BME280;45801;51.810;19.444;2022-12-05T06:55:40;99641.10;;;3.25;71.03
59939;BME280;45801;51.810;19.444;2022-12-05T06:58:06;99642.43;;;3.28;70.86
59939;BME280;45801;51.810;19.444;2022-12-05T07:00:33;99644.37;;;3.33;70.94
59939;BME280;45801;51.810;19.444;2022-12-05T07:03:18;99648.27;;;3.35;71.00
59939;BME280;45801;51.810;19.444;2022-12-05T07:05:44;99641.30;;;3.34;70.91
59939;BME280;45801;51.810;19.444;2022-12-05T07:08:11;99638.44;;;3.31;70.89
59939;BME280;45801;51.810;19.444;2022-12-05T07:10:37;99639.91;;;3.29;71.02
59939;BME280;45801;51.810;19.444;2022-12-05T07:13:03;99643.45;;;3.33;71.12
59939;BME280;45801;51.810;19.444;2022-12-05T07:15:30;99645.72;;;3.35;70.84
59939;BME280;45801;51.810;19.444;2022-12-05T07:17:56;99646.63;;;3.36;70.58
59939;BME280;45801;51.810;19.444;2022-12-05T07:20:23;99652.74;;;3.36;70.71
59939;BME280;45801;51.810;19.444;2022-12-05T07:22:49;99655.00;;;3.39;70.71
59939;BME280;45801;51.810;19.444;2022-12-05T07:25:15;99654.98;;;3.43;70.61
59939;BME280;45801;51.810;19.444;2022-12-05T07:27:42;99655.84;;;3.43;70.47
59939;BME280;45801;51.810;19.444;2022-12-05T07:30:08;99655.30;;;3.43;70.35
59939;BME280;45801;51.810;19.444;2022-12-05T07:32:35;99651.45;;;3.40;70.22
59939;BME280;45801;51.810;19.444;2022-12-05T07:35:01;99645.73;;;3.38;70.28
59939;BME280;45801;51.810;19.444;2022-12-05T07:37:28;99644.48;;;3.35;70.38
59939;BME280;45801;51.810;19.444;2022-12-05T07:39:54;99643.18;;;3.34;70.46
59939;BME280;45801;51.810;19.444;2022-12-05T07:42:21;99645.48;;;3.34;70.54
59939;BME280;45801;51.810;19.444;2022-12-05T07:44:47;99637.90;;;3.35;70.57
59939;BME280;45801;51.810;19.444;2022-12-05T07:47:14;99634.36;;;3.39;70.60
59939;BME280;45801;51.810;19.444;2022-12-05T07:49:40;99638.70;;;3.43;70.70
59939;BME280;45801;51.810;19.444;2022-12-05T07:52:06;99641.63;;;3.45;70.71
59939;BME280;45801;51.810;19.444;2022-12-05T07:54:34;99643.77;;;3.46;70.74
59939;BME280;45801;51.810;19.444;2022-12-05T07:57:00;99647.63;;;3.46;70.87
59939;BME280;45801;51.810;19.444;2022-12-05T07:59:27;99647.69;;;3.47;70.94
59939;BME280;45801;51.810;19.444;2022-12-05T08:01:53;99650.45;;;3.49;70.65
59939;BME280;45801;51.810;19.444;2022-12-05T08:04:19;99648.30;;;3.51;70.62
59939;BME280;45801;51.810;19.444;2022-12-05T08:06:46;99647.45;;;3.51;70.62
59939;BME280;45801;51.810;19.444;2022-12-05T08:09:12;99643.30;;;3.51;70.51
59939;BME280;45801;51.810;19.444;2022-12-05T08:11:39;99640.27;;;3.45;70.58
59939;BME280;45801;51.810;19.444;2022-12-05T08:14:06;99636.48;;;3.44;70.58
59939;BME280;45801;51.810;19.444;2022-12-05T08:16:33;99633.67;;;3.45;70.54
59939;BME280;45801;51.810;19.444;2022-12-05T08:19:04;99633.73;;;3.51;70.57
59939;BME280;45801;51.810;19.444;2022-12-05T08:21:32;99627.23;;;3.54;70.57
59939;BME280;45801;51.810;19.444;2022-12-05T08:23:59;99631.51;;;3.58;70.22
59939;BME280;45801;51.810;19.444;2022-12-05T08:26:27;99638.17;;;3.61;70.24
59939;BME280;45801;51.810;19.444;2022-12-05T08:29:04;99635.27;;;3.64;70.17
59939;BME280;45801;51.810;19.444;2022-12-05T08:31:33;99635.48;;;3.66;70.14
59939;BME280;45801;51.810;19.444;2022-12-05T08:34:00;99633.85;;;3.70;70.33
59939;BME280;45801;51.810;19.444;2022-12-05T08:36:28;99633.83;;;3.72;70.34
59939;BME280;45801;51.810;19.444;2022-12-05T08:38:56;99628.52;;;3.73;70.41
59939;BME280;45801;51.810;19.444;2022-12-05T08:41:24;99622.45;;;3.75;70.41
59939;BME280;45801;51.810;19.444;2022-12-05T08:43:54;99618.65;;;3.76;70.54
59939;BME280;45801;51.810;19.444;2022-12-05T08:46:21;99623.24;;;3.76;70.60
59939;BME280;45801;51.810;19.444;2022-12-05T08:48:47;99624.55;;;3.78;70.62
59939;BME280;45801;51.810;19.444;2022-12-05T08:51:14;99621.06;;;3.80;70.39
59939;BME280;45801;51.810;19.444;2022-12-05T08:53:40;99619.05;;;3.78;70.55
59939;BME280;45801;51.810;19.444;2022-12-05T08:56:08;99623.38;;;3.78;70.41
59939;BME280;45801;51.810;19.444;2022-12-05T08:58:35;99627.48;;;3.80;70.24
59939;BME280;45801;51.810;19.444;2022-12-05T09:01:07;99627.73;;;3.83;70.31
59939;BME280;45801;51.810;19.444;2022-12-05T09:03:34;99632.83;;;3.84;70.22
59939;BME280;45801;51.810;19.444;2022-12-05T09:06:22;99638.18;;;3.81;70.30
59939;BME280;45801;51.810;19.444;2022-12-05T09:08:57;99631.96;;;3.77;70.13
59939;BME280;45801;51.810;19.444;2022-12-05T09:11:27;99631.47;;;3.78;70.41
59939;BME280;45801;51.810;19.444;2022-12-05T09:13:55;99634.17;;;3.79;70.36
59939;BME280;45801;51.810;19.444;2022-12-05T09:16:25;99630.75;;;3.80;70.44
59939;BME280;45801;51.810;19.444;2022-12-05T09:18:54;99620.37;;;3.82;70.30
59939;BME280;45801;51.810;19.444;2022-12-05T09:21:24;99616.01;;;3.81;70.44
59939;BME280;45801;51.810;19.444;2022-12-05T09:23:51;99615.07;;;3.83;70.46
59939;BME280;45801;51.810;19.444;2022-12-05T09:26:20;99617.48;;;3.85;70.49
59939;BME280;45801;51.810;19.444;2022-12-05T09:28:48;99619.90;;;3.85;70.51
59939;BME280;45801;51.810;19.444;2022-12-05T09:31:20;99624.00;;;3.84;70.62
59939;BME280;45801;51.810;19.444;2022-12-05T09:33:47;99621.16;;;3.86;70.57
59939;BME280;45801;51.810;19.444;2022-12-05T09:36:22;99615.39;;;3.90;70.57
59939;BME280;45801;51.810;19.444;2022-12-05T09:38:50;99614.27;;;3.95;70.64
59939;BME280;45801;51.810;19.444;2022-12-05T09:52:26;99594.50;;;4.14;70.11
59939;BME280;45801;51.810;19.444;2022-12-05T09:54:55;99594.59;;;4.13;70.23
59939;BME280;45801;51.810;19.444;2022-12-05T09:57:31;99596.48;;;4.12;70.32
59939;BME280;45801;51.810;19.444;2022-12-05T10:00:00;99593.54;;;4.13;70.04
59939;BME280;45801;51.810;19.444;2022-12-05T10:02:39;99595.16;;;4.13;69.93
59939;BME280;45801;51.810;19.444;2022-12-05T10:05:29;99590.70;;;4.12;70.01
59939;BME280;45801;51.810;19.444;2022-12-05T10:11:18;99591.22;;;4.04;70.11
59939;BME280;45801;51.810;19.444;2022-12-05T10:16:38;99585.87;;;4.05;70.62
59939;BME280;45801;51.810;19.444;2022-12-05T10:19:35;99583.24;;;4.02;70.59
59939;BME280;45801;51.810;19.444;2022-12-05T10:25:04;99585.38;;;4.10;70.74
59939;BME280;45801;51.810;19.444;2022-12-05T10:27:35;99582.28;;;4.17;70.72
59939;BME280;45801;51.810;19.444;2022-12-05T10:30:24;99581.09;;;4.20;70.71
59939;BME280;45801;51.810;19.444;2022-12-05T10:33:04;99579.62;;;4.23;70.76
59939;BME280;45801;51.810;19.444;2022-12-05T10:35:39;99574.48;;;4.29;70.44
59939;BME280;45801;51.810;19.444;2022-12-05T10:38:32;99569.77;;;4.31;70.12
59939;BME280;45801;51.810;19.444;2022-12-05T10:41:04;99568.30;;;4.30;70.18
59939;BME280;45801;51.810;19.444;2022-12-05T10:43:33;99573.64;;;4.30;70.40
59939;BME280;45801;51.810;19.444;2022-12-05T10:46:03;99567.59;;;4.30;70.15
59939;BME280;45801;51.810;19.444;2022-12-05T10:48:34;99560.50;;;4.30;70.18
59939;BME280;45801;51.810;19.444;2022-12-05T10:51:02;99562.06;;;4.32;70.11
59939;BME280;45801;51.810;19.444;2022-12-05T10:53:39;99562.08;;;4.33;70.20
59939;BME280;45801;51.810;19.444;2022-12-05T10:56:34;99559.41;;;4.32;70.17
59939;BME280;45801;51.810;19.444;2022-12-05T10:59:01;99557.59;;;4.28;70.24
59939;BME280;45801;51.810;19.444;2022-12-05T11:01:28;99551.39;;;4.24;70.01
59939;BME280;45801;51.810;19.444;2022-12-05T11:04:00;99545.23;;;4.23;70.23
59939;BME280;45801;51.810;19.444;2022-12-05T11:06:30;99544.77;;;4.23;70.22
59939;BME280;45801;51.810;19.444;2022-12-05T11:09:02;99546.52;;;4.24;70.56
59939;BME280;45801;51.810;19.444;2022-12-05T11:11:31;99543.75;;;4.24;70.44
59939;BME280;45801;51.810;19.444;2022-12-05T11:14:19;99538.92;;;4.24;70.46
59939;BME280;45801;51.810;19.444;2022-12-05T11:16:55;99535.33;;;4.27;70.37
59939;BME280;45801;51.810;19.444;2022-12-05T11:19:26;99533.19;;;4.31;70.54
59939;BME280;45801;51.810;19.444;2022-12-05T11:21:54;99536.40;;;4.35;70.29
59939;BME280;45801;51.810;19.444;2022-12-05T11:24:37;99539.16;;;4.35;70.26
59939;BME280;45801;51.810;19.444;2022-12-05T11:29:54;99532.33;;;4.36;70.42
59939;BME280;45801;51.810;19.444;2022-12-05T11:32:24;99529.38;;;4.38;70.45
59939;BME280;45801;51.810;19.444;2022-12-05T11:34:57;99533.91;;;4.39;70.58
59939;BME280;45801;51.810;19.444;2022-12-05T11:37:31;99534.74;;;4.43;70.43
59939;BME280;45801;51.810;19.444;2022-12-05T11:40:00;99533.48;;;4.45;70.30
59939;BME280;45801;51.810;19.444;2022-12-05T11:45:24;99533.95;;;4.44;70.36
59939;BME280;45801;51.810;19.444;2022-12-05T11:56:53;99522.82;;;4.44;70.40
59939;BME280;45801;51.810;19.444;2022-12-05T11:59:51;99516.98;;;4.45;70.21
59939;BME280;45801;51.810;19.444;2022-12-05T12:02:47;99513.23;;;4.43;70.30
59939;BME280;45801;51.810;19.444;2022-12-05T12:05:32;99512.91;;;4.43;70.36
59939;BME280;45801;51.810;19.444;2022-12-05T12:08:18;99510.98;;;4.46;70.31
59939;BME280;45801;51.810;19.444;2022-12-05T12:11:06;99512.02;;;4.51;70.45
59939;BME280;45801;51.810;19.444;2022-12-05T12:13:46;99507.69;;;4.55;70.46
59939;BME280;45801;51.810;19.444;2022-12-05T12:16:43;99504.29;;;4.56;70.31
59939;BME280;45801;51.810;19.444;2022-12-05T12:19:29;99498.61;;;4.55;70.57
59939;BME280;45801;51.810;19.444;2022-12-05T12:22:20;99492.52;;;4.54;70.48
59939;BME280;45801;51.810;19.444;2022-12-05T12:33:14;99477.30;;;4.65;70.37
59939;BME280;45801;51.810;19.444;2022-12-05T12:38:33;99482.16;;;4.72;70.15
59939;BME280;45801;51.810;19.444;2022-12-05T12:46:49;99478.81;;;4.76;70.12
59939;BME280;45801;51.810;19.444;2022-12-05T12:49:21;99474.30;;;4.79;70.07
59939;BME280;45801;51.810;19.444;2022-12-05T12:52:01;99473.14;;;4.82;69.84
59939;BME280;45801;51.810;19.444;2022-12-05T12:54:38;99477.60;;;4.84;69.77
59939;BME280;45801;51.810;19.444;2022-12-05T12:59:45;99477.84;;;4.83;69.96
59939;BME280;45801;51.810;19.444;2022-12-05T13:02:32;99476.44;;;4.82;69.89
59939;BME280;45801;51.810;19.444;2022-12-05T13:05:19;99478.73;;;4.83;69.81
59939;BME280;45801;51.810;19.444;2022-12-05T13:07:52;99474.91;;;4.83;69.70
59939;BME280;45801;51.810;19.444;2022-12-05T13:10:36;99471.88;;;4.84;69.65
59939;BME280;45801;51.810;19.444;2022-12-05T13:13:05;99469.98;;;4.84;69.52
59939;BME280;45801;51.810;19.444;2022-12-05T13:15:42;99471.65;;;4.84;69.57
59939;BME280;45801;51.810;19.444;2022-12-05T13:18:17;99464.96;;;4.82;69.68
59939;BME280;45801;51.810;19.444;2022-12-05T13:20:47;99461.55;;;4.80;69.69
59939;BME280;45801;51.810;19.444;2022-12-05T13:23:17;99461.71;;;4.78;69.69
59939;BME280;45801;51.810;19.444;2022-12-05T13:25:46;99464.95;;;4.77;69.94
59939;BME280;45801;51.810;19.444;2022-12-05T13:28:31;99460.35;;;4.78;69.96
59939;BME280;45801;51.810;19.444;2022-12-05T13:31:00;99460.39;;;4.78;69.87
59939;BME280;45801;51.810;19.444;2022-12-05T13:36:10;99454.68;;;4.76;70.22
59939;BME280;45801;51.810;19.444;2022-12-05T13:39:21;99458.89;;;4.80;70.01
59939;BME280;45801;51.810;19.444;2022-12-05T13:42:18;99456.83;;;4.82;70.15
59939;BME280;45801;51.810;19.444;2022-12-05T13:50:30;99477.75;;;4.94;69.90
59939;BME280;45801;51.810;19.444;2022-12-05T13:53:23;99468.59;;;4.97;69.99
59939;BME280;45801;51.810;19.444;2022-12-05T13:55:58;99468.85;;;4.98;69.83
59939;BME280;45801;51.810;19.444;2022-12-05T14:01:40;99471.27;;;5.03;69.71
59939;BME280;45801;51.810;19.444;2022-12-05T14:04:23;99460.46;;;5.02;69.64
59939;BME280;45801;51.810;19.444;2022-12-05T14:07:08;99463.52;;;5.01;69.52
59939;BME280;45801;51.810;19.444;2022-12-05T14:09:53;99459.83;;;5.01;69.24
59939;BME280;45801;51.810;19.444;2022-12-05T14:17:27;99462.16;;;4.97;69.49
59939;BME280;45801;51.810;19.444;2022-12-05T14:20:31;99465.14;;;5.00;69.42
59939;BME280;45801;51.810;19.444;2022-12-05T14:28:36;99466.24;;;5.08;69.57
59939;BME280;45801;51.810;19.444;2022-12-05T14:31:32;99466.71;;;5.10;69.42
59939;BME280;45801;51.810;19.444;2022-12-05T14:34:22;99462.69;;;5.09;69.34
59939;BME280;45801;51.810;19.444;2022-12-05T14:37:02;99459.43;;;5.08;69.55
59939;BME280;45801;51.810;19.444;2022-12-05T14:39:36;99452.66;;;5.08;69.72
59939;BME280;45801;51.810;19.444;2022-12-05T14:42:15;99455.46;;;5.10;69.43
59939;BME280;45801;51.810;19.444;2022-12-05T14:44:50;99460.43;;;5.12;69.51
59939;BME280;45801;51.810;19.444;2022-12-05T14:47:25;99458.27;;;5.13;69.53
59939;BME280;45801;51.810;19.444;2022-12-05T14:49:55;99451.07;;;5.17;69.28
59939;BME280;45801;51.810;19.444;2022-12-05T14:52:25;99447.27;;;5.20;69.15
59939;BME280;45801;51.810;19.444;2022-12-05T14:54:57;99446.32;;;5.19;68.99
59939;BME280;45801;51.810;19.444;2022-12-05T14:57:26;99443.75;;;5.17;69.01
59939;BME280;45801;51.810;19.444;2022-12-05T15:00:05;99442.11;;;5.16;68.85
59939;BME280;45801;51.810;19.444;2022-12-05T15:02:36;99441.20;;;5.13;68.97
59939;BME280;45801;51.810;19.444;2022-12-05T15:07:51;99442.27;;;5.03;69.13
59939;BME280;45801;51.810;19.444;2022-12-05T15:10:35;99439.16;;;5.03;69.11
59939;BME280;45801;51.810;19.444;2022-12-05T15:13:13;99439.97;;;5.02;69.34
59939;BME280;45801;51.810;19.444;2022-12-05T15:15:45;99443.27;;;5.02;69.50